sensor_id;sensor_type;location;lat;lon;timestamp;P1;durP1;ratioP1;P2;durP2;ratioP2
66169;SDS011;52971;44.024;20.456;2022-10-23T00:01:11;13.60;;;10.20;;
66169;SDS011;52971;44.024;20.456;2022-10-23T00:03:37;12.45;;;9.35;;
66169;SDS011;52971;44.024;20.456;2022-10-23T00:06:05;13.95;;;9.50;;
66169;SDS011;52971;44.024;20.456;2022-10-23T00:08:31;15.57;;;10.80;;
66169;SDS011;52971;44.024;20.456;2022-10-23T00:10:57;15.98;;;10.05;;
66169;SDS011;52971;44.024;20.456;2022-10-23T00:13:22;14.95;;;10.07;;
66169;SDS011;52971;44.024;20.456;2022-10-23T00:15:48;15.48;;;9.90;;
66169;SDS011;52971;44.024;20.456;2022-10-23T00:18:13;14.43;;;9.93;;
66169;SDS011;52971;44.024;20.456;2022-10-23T00:20:38;16.15;;;10.35;;
66169;SDS011;52971;44.024;20.456;2022-10-23T00:23:04;21.33;;;9.90;;
66169;SDS011;52971;44.024;20.456;2022-10-23T00:25:29;10.70;;;9.38;;
66169;SDS011;52971;44.024;20.456;2022-10-23T00:27:56;12.43;;;8.88;;
66169;SDS011;52971;44.024;20.456;2022-10-23T00:30:21;16.95;;;9.05;;
66169;SDS011;52971;44.024;20.456;2022-10-23T00:32:47;13.43;;;9.68;;
66169;SDS011;52971;44.024;20.456;2022-10-23T00:35:13;15.10;;;10.70;;
66169;SDS011;52971;44.024;20.456;2022-10-23T00:37:38;14.95;;;9.88;;
66169;SDS011;52971;44.024;20.456;2022-10-23T00:40:04;16.95;;;10.35;;
66169;SDS011;52971;44.024;20.456;2022-10-23T00:42:30;13.32;;;9.65;;
66169;SDS011;52971;44.024;20.456;2022-10-23T00:45:07;14.95;;;9.63;;
66169;SDS011;52971;44.024;20.456;2022-10-23T00:47:38;19.30;;;11.10;;
66169;SDS011;52971;44.024;20.456;2022-10-23T00:50:04;14.02;;;9.20;;
66169;SDS011;52971;44.024;20.456;2022-10-23T00:52:30;19.58;;;10.43;;
66169;SDS011;52971;44.024;20.456;2022-10-23T00:54:56;16.00;;;11.27;;
66169;SDS011;52971;44.024;20.456;2022-10-23T00:57:22;15.55;;;10.38;;
66169;SDS011;52971;44.024;20.456;2022-10-23T00:59:48;16.88;;;11.60;;
66169;SDS011;52971;44.024;20.456;2022-10-23T01:02:13;18.67;;;12.75;;
66169;SDS011;52971;44.024;20.456;2022-10-23T01:04:39;23.10;;;13.75;;
66169;SDS011;52971;44.024;20.456;2022-10-23T01:07:16;18.00;;;11.85;;
66169;SDS011;52971;44.024;20.456;2022-10-23T01:09:52;19.50;;;13.15;;
66169;SDS011;52971;44.024;20.456;2022-10-23T01:17:56;20.52;;;12.55;;
66169;SDS011;52971;44.024;20.456;2022-10-23T01:25:54;18.92;;;13.05;;
66169;SDS011;52971;44.024;20.456;2022-10-23T01:31:23;16.25;;;11.13;;
66169;SDS011;52971;44.024;20.456;2022-10-23T01:33:55;23.92;;;13.63;;
66169;SDS011;52971;44.024;20.456;2022-10-23T01:36:25;24.00;;;14.32;;
66169;SDS011;52971;44.024;20.456;2022-10-23T01:38:55;19.60;;;13.43;;
66169;SDS011;52971;44.024;20.456;2022-10-23T01:41:28;21.05;;;13.77;;
66169;SDS011;52971;44.024;20.456;2022-10-23T01:44:28;21.02;;;13.48;;
66169;SDS011;52971;44.024;20.456;2022-10-23T01:46:58;19.88;;;12.45;;
66169;SDS011;52971;44.024;20.456;2022-10-23T01:49:26;18.27;;;12.15;;
66169;SDS011;52971;44.024;20.456;2022-10-23T01:51:54;17.23;;;11.95;;
66169;SDS011;52971;44.024;20.456;2022-10-23T01:54:23;14.88;;;11.18;;
66169;SDS011;52971;44.024;20.456;2022-10-23T01:56:53;15.05;;;11.13;;
66169;SDS011;52971;44.024;20.456;2022-10-23T01:59:20;14.25;;;10.25;;
66169;SDS011;52971;44.024;20.456;2022-10-23T02:01:50;16.65;;;10.32;;
66169;SDS011;52971;44.024;20.456;2022-10-23T02:04:20;12.73;;;9.60;;
66169;SDS011;52971;44.024;20.456;2022-10-23T02:06:51;15.98;;;10.57;;
66169;SDS011;52971;44.024;20.456;2022-10-23T02:09:16;14.85;;;10.00;;
66169;SDS011;52971;44.024;20.456;2022-10-23T02:11:52;16.83;;;11.43;;
66169;SDS011;52971;44.024;20.456;2022-10-23T02:14:28;18.55;;;11.82;;
66169;SDS011;52971;44.024;20.456;2022-10-23T02:17:07;20.95;;;11.77;;
66169;SDS011;52971;44.024;20.456;2022-10-23T02:19:42;17.98;;;11.25;;
66169;SDS011;52971;44.024;20.456;2022-10-23T02:22:24;15.70;;;12.25;;
66169;SDS011;52971;44.024;20.456;2022-10-23T02:25:12;19.38;;;13.02;;
66169;SDS011;52971;44.024;20.456;2022-10-23T02:28:02;18.90;;;12.18;;
66169;SDS011;52971;44.024;20.456;2022-10-23T02:30:31;16.38;;;11.82;;
66169;SDS011;52971;44.024;20.456;2022-10-23T02:33:01;18.33;;;12.15;;
66169;SDS011;52971;44.024;20.456;2022-10-23T02:35:28;19.38;;;11.82;;
66169;SDS011;52971;44.024;20.456;2022-10-23T02:37:54;17.95;;;12.20;;
66169;SDS011;52971;44.024;20.456;2022-10-23T02:40:21;17.98;;;12.43;;
66169;SDS011;52971;44.024;20.456;2022-10-23T02:42:54;15.70;;;11.25;;
66169;SDS011;52971;44.024;20.456;2022-10-23T02:45:28;13.77;;;9.45;;
66169;SDS011;52971;44.024;20.456;2022-10-23T02:50:55;16.00;;;9.82;;
66169;SDS011;52971;44.024;20.456;2022-10-23T02:53:35;14.43;;;10.00;;
66169;SDS011;52971;44.024;20.456;2022-10-23T02:56:21;14.48;;;9.43;;
66169;SDS011;52971;44.024;20.456;2022-10-23T02:58:57;16.55;;;12.55;;
66169;SDS011;52971;44.024;20.456;2022-10-23T03:01:35;18.75;;;12.70;;
66169;SDS011;52971;44.024;20.456;2022-10-23T03:04:06;18.52;;;12.63;;
66169;SDS011;52971;44.024;20.456;2022-10-23T03:06:34;20.42;;;13.45;;
66169;SDS011;52971;44.024;20.456;2022-10-23T03:09:04;22.63;;;13.90;;
66169;SDS011;52971;44.024;20.456;2022-10-23T03:11:31;19.30;;;12.05;;
66169;SDS011;52971;44.024;20.456;2022-10-23T03:13:57;18.35;;;13.27;;
66169;SDS011;52971;44.024;20.456;2022-10-23T03:16:22;18.30;;;12.55;;
66169;SDS011;52971;44.024;20.456;2022-10-23T03:18:48;19.02;;;12.55;;
66169;SDS011;52971;44.024;20.456;2022-10-23T03:21:13;22.27;;;13.07;;
66169;SDS011;52971;44.024;20.456;2022-10-23T03:23:39;19.38;;;13.00;;
66169;SDS011;52971;44.024;20.456;2022-10-23T03:26:04;17.52;;;12.40;;
66169;SDS011;52971;44.024;20.456;2022-10-23T03:28:30;19.00;;;12.98;;
66169;SDS011;52971;44.024;20.456;2022-10-23T03:30:55;19.52;;;13.43;;
66169;SDS011;52971;44.024;20.456;2022-10-23T03:33:21;19.85;;;13.63;;
66169;SDS011;52971;44.024;20.456;2022-10-23T03:35:47;21.48;;;13.93;;
66169;SDS011;52971;44.024;20.456;2022-10-23T03:38:12;22.17;;;13.63;;
66169;SDS011;52971;44.024;20.456;2022-10-23T03:40:38;23.17;;;17.13;;
66169;SDS011;52971;44.024;20.456;2022-10-23T03:43:03;38.08;;;22.70;;
66169;SDS011;52971;44.024;20.456;2022-10-23T03:45:29;30.65;;;21.65;;
66169;SDS011;52971;44.024;20.456;2022-10-23T03:47:56;26.42;;;20.30;;
66169;SDS011;52971;44.024;20.456;2022-10-23T03:50:22;24.20;;;18.02;;
66169;SDS011;52971;44.024;20.456;2022-10-23T03:52:48;25.58;;;17.98;;
66169;SDS011;52971;44.024;20.456;2022-10-23T03:55:14;21.17;;;14.38;;
66169;SDS011;52971;44.024;20.456;2022-10-23T03:57:40;23.10;;;14.80;;
66169;SDS011;52971;44.024;20.456;2022-10-23T04:00:05;17.70;;;12.55;;
66169;SDS011;52971;44.024;20.456;2022-10-23T04:02:32;22.50;;;15.13;;
66169;SDS011;52971;44.024;20.456;2022-10-23T04:04:57;20.13;;;13.38;;
66169;SDS011;52971;44.024;20.456;2022-10-23T04:07:23;18.55;;;12.48;;
66169;SDS011;52971;44.024;20.456;2022-10-23T04:09:48;19.15;;;12.45;;
66169;SDS011;52971;44.024;20.456;2022-10-23T04:12:14;18.92;;;11.27;;
66169;SDS011;52971;44.024;20.456;2022-10-23T04:14:39;15.52;;;11.07;;
66169;SDS011;52971;44.024;20.456;2022-10-23T04:17:05;14.55;;;11.13;;
66169;SDS011;52971;44.024;20.456;2022-10-23T04:19:30;16.80;;;11.55;;
66169;SDS011;52971;44.024;20.456;2022-10-23T04:21:56;16.10;;;12.13;;
66169;SDS011;52971;44.024;20.456;2022-10-23T04:24:22;17.55;;;11.77;;
66169;SDS011;52971;44.024;20.456;2022-10-23T04:26:48;17.55;;;12.07;;
66169;SDS011;52971;44.024;20.456;2022-10-23T04:29:13;15.23;;;10.55;;
66169;SDS011;52971;44.024;20.456;2022-10-23T04:31:39;14.57;;;10.68;;
66169;SDS011;52971;44.024;20.456;2022-10-23T04:34:04;14.45;;;11.07;;
66169;SDS011;52971;44.024;20.456;2022-10-23T04:36:30;17.02;;;11.23;;
66169;SDS011;52971;44.024;20.456;2022-10-23T04:38:55;19.63;;;11.30;;
66169;SDS011;52971;44.024;20.456;2022-10-23T04:41:21;19.90;;;11.15;;
66169;SDS011;52971;44.024;20.456;2022-10-23T04:43:46;18.48;;;11.77;;
66169;SDS011;52971;44.024;20.456;2022-10-23T04:46:12;17.13;;;11.65;;
66169;SDS011;52971;44.024;20.456;2022-10-23T04:48:37;19.20;;;10.98;;
66169;SDS011;52971;44.024;20.456;2022-10-23T04:51:03;15.05;;;10.18;;
66169;SDS011;52971;44.024;20.456;2022-10-23T04:53:30;13.02;;;10.15;;
66169;SDS011;52971;44.024;20.456;2022-10-23T04:55:56;12.70;;;10.02;;
66169;SDS011;52971;44.024;20.456;2022-10-23T04:58:23;14.25;;;10.68;;
66169;SDS011;52971;44.024;20.456;2022-10-23T05:00:50;14.73;;;10.55;;
66169;SDS011;52971;44.024;20.456;2022-10-23T05:03:16;15.18;;;10.55;;
66169;SDS011;52971;44.024;20.456;2022-10-23T05:05:43;18.52;;;14.75;;
66169;SDS011;52971;44.024;20.456;2022-10-23T05:08:08;22.83;;;17.75;;
66169;SDS011;52971;44.024;20.456;2022-10-23T05:10:34;33.83;;;25.17;;
66169;SDS011;52971;44.024;20.456;2022-10-23T05:13:00;22.35;;;17.17;;
66169;SDS011;52971;44.024;20.456;2022-10-23T05:15:26;19.77;;;14.23;;
66169;SDS011;52971;44.024;20.456;2022-10-23T05:17:52;16.52;;;13.55;;
66169;SDS011;52971;44.024;20.456;2022-10-23T05:20:23;20.83;;;14.07;;
66169;SDS011;52971;44.024;20.456;2022-10-23T05:22:50;20.83;;;14.15;;
66169;SDS011;52971;44.024;20.456;2022-10-23T05:25:19;20.83;;;15.02;;
66169;SDS011;52971;44.024;20.456;2022-10-23T05:27:44;17.83;;;12.63;;
66169;SDS011;52971;44.024;20.456;2022-10-23T05:30:10;23.55;;;15.52;;
66169;SDS011;52971;44.024;20.456;2022-10-23T05:32:36;24.45;;;16.42;;
66169;SDS011;52971;44.024;20.456;2022-10-23T05:35:05;27.02;;;18.65;;
66169;SDS011;52971;44.024;20.456;2022-10-23T05:37:32;27.77;;;17.77;;
66169;SDS011;52971;44.024;20.456;2022-10-23T05:40:00;29.92;;;18.63;;
66169;SDS011;52971;44.024;20.456;2022-10-23T05:42:26;25.35;;;18.60;;
66169;SDS011;52971;44.024;20.456;2022-10-23T05:44:51;26.48;;;20.10;;
66169;SDS011;52971;44.024;20.456;2022-10-23T05:47:18;38.85;;;24.35;;
66169;SDS011;52971;44.024;20.456;2022-10-23T05:49:43;35.30;;;23.55;;
66169;SDS011;52971;44.024;20.456;2022-10-23T05:52:10;40.72;;;26.33;;
66169;SDS011;52971;44.024;20.456;2022-10-23T05:54:36;39.83;;;26.65;;
66169;SDS011;52971;44.024;20.456;2022-10-23T05:57:01;43.10;;;28.35;;
66169;SDS011;52971;44.024;20.456;2022-10-23T05:59:27;32.10;;;19.55;;
66169;SDS011;52971;44.024;20.456;2022-10-23T06:01:52;26.02;;;18.33;;
66169;SDS011;52971;44.024;20.456;2022-10-23T06:04:18;23.90;;;17.38;;
66169;SDS011;52971;44.024;20.456;2022-10-23T06:06:44;22.27;;;17.40;;
66169;SDS011;52971;44.024;20.456;2022-10-23T06:09:10;22.98;;;15.52;;
66169;SDS011;52971;44.024;20.456;2022-10-23T06:11:36;19.83;;;14.98;;
66169;SDS011;52971;44.024;20.456;2022-10-23T06:14:01;18.35;;;15.10;;
66169;SDS011;52971;44.024;20.456;2022-10-23T06:16:26;17.83;;;14.23;;
66169;SDS011;52971;44.024;20.456;2022-10-23T06:18:52;19.20;;;13.23;;
66169;SDS011;52971;44.024;20.456;2022-10-23T06:21:18;19.77;;;15.13;;
66169;SDS011;52971;44.024;20.456;2022-10-23T06:23:45;20.85;;;14.23;;
66169;SDS011;52971;44.024;20.456;2022-10-23T06:26:11;18.15;;;14.50;;
66169;SDS011;52971;44.024;20.456;2022-10-23T06:28:38;21.50;;;14.32;;
66169;SDS011;52971;44.024;20.456;2022-10-23T06:31:08;18.00;;;14.38;;
66169;SDS011;52971;44.024;20.456;2022-10-23T06:33:35;18.02;;;15.10;;
66169;SDS011;52971;44.024;20.456;2022-10-23T06:36:01;20.65;;;14.10;;
66169;SDS011;52971;44.024;20.456;2022-10-23T06:38:27;23.65;;;16.23;;
66169;SDS011;52971;44.024;20.456;2022-10-23T06:40:53;29.23;;;20.02;;
66169;SDS011;52971;44.024;20.456;2022-10-23T06:43:20;22.13;;;15.20;;
66169;SDS011;52971;44.024;20.456;2022-10-23T06:45:47;22.98;;;14.38;;
66169;SDS011;52971;44.024;20.456;2022-10-23T06:48:12;19.52;;;14.63;;
66169;SDS011;52971;44.024;20.456;2022-10-23T06:50:38;16.60;;;13.30;;
66169;SDS011;52971;44.024;20.456;2022-10-23T06:53:04;18.02;;;12.73;;
66169;SDS011;52971;44.024;20.456;2022-10-23T06:55:30;31.98;;;18.35;;
66169;SDS011;52971;44.024;20.456;2022-10-23T06:57:57;19.05;;;13.70;;
66169;SDS011;52971;44.024;20.456;2022-10-23T07:00:23;13.23;;;10.13;;
66169;SDS011;52971;44.024;20.456;2022-10-23T07:02:48;15.55;;;9.77;;
66169;SDS011;52971;44.024;20.456;2022-10-23T07:05:14;12.50;;;9.35;;
66169;SDS011;52971;44.024;20.456;2022-10-23T07:07:40;14.07;;;9.63;;
66169;SDS011;52971;44.024;20.456;2022-10-23T07:10:06;13.40;;;9.77;;
66169;SDS011;52971;44.024;20.456;2022-10-23T07:12:32;15.30;;;11.57;;
66169;SDS011;52971;44.024;20.456;2022-10-23T07:14:57;11.18;;;8.68;;
66169;SDS011;52971;44.024;20.456;2022-10-23T07:17:22;8.93;;;6.43;;
66169;SDS011;52971;44.024;20.456;2022-10-23T07:19:48;10.95;;;8.38;;
66169;SDS011;52971;44.024;20.456;2022-10-23T07:22:13;11.23;;;8.57;;
66169;SDS011;52971;44.024;20.456;2022-10-23T07:24:39;8.35;;;7.20;;
66169;SDS011;52971;44.024;20.456;2022-10-23T07:27:04;6.50;;;4.30;;
66169;SDS011;52971;44.024;20.456;2022-10-23T07:29:30;7.38;;;4.18;;
66169;SDS011;52971;44.024;20.456;2022-10-23T07:31:57;6.68;;;4.25;;
66169;SDS011;52971;44.024;20.456;2022-10-23T07:34:25;7.53;;;4.55;;
66169;SDS011;52971;44.024;20.456;2022-10-23T07:36:50;5.20;;;4.22;;
66169;SDS011;52971;44.024;20.456;2022-10-23T07:39:16;8.98;;;4.72;;
66169;SDS011;52971;44.024;20.456;2022-10-23T07:41:41;7.28;;;5.00;;
66169;SDS011;52971;44.024;20.456;2022-10-23T07:44:07;6.10;;;5.38;;
66169;SDS011;52971;44.024;20.456;2022-10-23T07:46:32;10.65;;;5.32;;
66169;SDS011;52971;44.024;20.456;2022-10-23T07:48:58;12.43;;;5.25;;
66169;SDS011;52971;44.024;20.456;2022-10-23T07:51:23;6.78;;;5.20;;
66169;SDS011;52971;44.024;20.456;2022-10-23T07:53:49;5.97;;;3.80;;
66169;SDS011;52971;44.024;20.456;2022-10-23T07:56:15;6.88;;;5.18;;
66169;SDS011;52971;44.024;20.456;2022-10-23T07:58:44;9.48;;;5.05;;
66169;SDS011;52971;44.024;20.456;2022-10-23T08:01:22;6.72;;;4.30;;
66169;SDS011;52971;44.024;20.456;2022-10-23T08:03:52;6.55;;;4.20;;
66169;SDS011;52971;44.024;20.456;2022-10-23T08:06:17;6.10;;;4.25;;
66169;SDS011;52971;44.024;20.456;2022-10-23T08:08:43;7.30;;;4.38;;
66169;SDS011;52971;44.024;20.456;2022-10-23T08:11:09;10.88;;;6.38;;
66169;SDS011;52971;44.024;20.456;2022-10-23T08:13:37;9.50;;;6.07;;
66169;SDS011;52971;44.024;20.456;2022-10-23T08:16:03;11.13;;;7.05;;
66169;SDS011;52971;44.024;20.456;2022-10-23T08:18:29;11.25;;;7.20;;
66169;SDS011;52971;44.024;20.456;2022-10-23T08:20:58;10.07;;;6.78;;
66169;SDS011;52971;44.024;20.456;2022-10-23T08:23:25;10.02;;;6.50;;
66169;SDS011;52971;44.024;20.456;2022-10-23T08:25:55;12.98;;;6.65;;
66169;SDS011;52971;44.024;20.456;2022-10-23T08:28:22;12.23;;;7.57;;
66169;SDS011;52971;44.024;20.456;2022-10-23T08:30:48;10.95;;;5.80;;
66169;SDS011;52971;44.024;20.456;2022-10-23T08:33:13;8.88;;;6.93;;
66169;SDS011;52971;44.024;20.456;2022-10-23T08:35:39;12.10;;;6.53;;
66169;SDS011;52971;44.024;20.456;2022-10-23T08:38:04;10.43;;;6.55;;
66169;SDS011;52971;44.024;20.456;2022-10-23T08:40:31;16.52;;;9.07;;
66169;SDS011;52971;44.024;20.456;2022-10-23T08:45:39;11.27;;;6.57;;
66169;SDS011;52971;44.024;20.456;2022-10-23T08:51:04;10.85;;;6.82;;
66169;SDS011;52971;44.024;20.456;2022-10-23T08:56:23;11.32;;;5.60;;
66169;SDS011;52971;44.024;20.456;2022-10-23T09:04:00;10.07;;;5.38;;
66169;SDS011;52971;44.024;20.456;2022-10-23T09:06:38;9.65;;;6.22;;
66169;SDS011;52971;44.024;20.456;2022-10-23T09:14:34;6.63;;;4.82;;
66169;SDS011;52971;44.024;20.456;2022-10-23T09:17:22;8.82;;;5.47;;
66169;SDS011;52971;44.024;20.456;2022-10-23T09:22:57;6.30;;;3.83;;
66169;SDS011;52971;44.024;20.456;2022-10-23T09:25:28;6.95;;;4.13;;
66169;SDS011;52971;44.024;20.456;2022-10-23T09:28:04;8.23;;;4.15;;
66169;SDS011;52971;44.024;20.456;2022-10-23T09:30:31;6.65;;;3.97;;
66169;SDS011;52971;44.024;20.456;2022-10-23T09:33:00;6.80;;;3.22;;
66169;SDS011;52971;44.024;20.456;2022-10-23T09:35:38;8.02;;;4.20;;
66169;SDS011;52971;44.024;20.456;2022-10-23T09:38:24;6.22;;;3.72;;
66169;SDS011;52971;44.024;20.456;2022-10-23T09:40:52;9.75;;;4.45;;
66169;SDS011;52971;44.024;20.456;2022-10-23T09:43:18;9.18;;;3.97;;
66169;SDS011;52971;44.024;20.456;2022-10-23T09:46:03;6.50;;;4.05;;
66169;SDS011;52971;44.024;20.456;2022-10-23T09:48:31;6.05;;;3.67;;
66169;SDS011;52971;44.024;20.456;2022-10-23T09:51:01;7.93;;;4.20;;
66169;SDS011;52971;44.024;20.456;2022-10-23T09:53:56;5.05;;;3.35;;
66169;SDS011;52971;44.024;20.456;2022-10-23T09:56:34;8.20;;;4.57;;
66169;SDS011;52971;44.024;20.456;2022-10-23T10:01:42;5.75;;;3.65;;
66169;SDS011;52971;44.024;20.456;2022-10-23T10:04:11;5.40;;;3.17;;
66169;SDS011;52971;44.024;20.456;2022-10-23T10:06:36;7.80;;;4.50;;
66169;SDS011;52971;44.024;20.456;2022-10-23T10:09:03;9.35;;;5.90;;
66169;SDS011;52971;44.024;20.456;2022-10-23T10:16:47;5.45;;;2.78;;
66169;SDS011;52971;44.024;20.456;2022-10-23T10:24:43;8.82;;;4.28;;
66169;SDS011;52971;44.024;20.456;2022-10-23T10:27:23;5.85;;;3.28;;
66169;SDS011;52971;44.024;20.456;2022-10-23T10:30:24;6.13;;;3.35;;
66169;SDS011;52971;44.024;20.456;2022-10-23T10:35:54;5.95;;;3.38;;
66169;SDS011;52971;44.024;20.456;2022-10-23T10:43:59;6.80;;;3.70;;
66169;SDS011;52971;44.024;20.456;2022-10-23T10:46:37;8.35;;;3.92;;
66169;SDS011;52971;44.024;20.456;2022-10-23T11:00:17;8.70;;;3.55;;
66169;SDS011;52971;44.024;20.456;2022-10-23T11:05:37;6.03;;;3.65;;
66169;SDS011;52971;44.024;20.456;2022-10-23T11:08:11;4.28;;;3.28;;
66169;SDS011;52971;44.024;20.456;2022-10-23T11:18:39;4.47;;;3.20;;
66169;SDS011;52971;44.024;20.456;2022-10-23T11:29:47;3.65;;;2.95;;
66169;SDS011;52971;44.024;20.456;2022-10-23T11:32:50;4.75;;;3.10;;
66169;SDS011;52971;44.024;20.456;2022-10-23T11:38:00;4.47;;;3.13;;
66169;SDS011;52971;44.024;20.456;2022-10-23T11:40:55;5.22;;;3.42;;
66169;SDS011;52971;44.024;20.456;2022-10-23T11:48:47;7.68;;;3.15;;
66169;SDS011;52971;44.024;20.456;2022-10-23T11:51:30;6.13;;;2.55;;
66169;SDS011;52971;44.024;20.456;2022-10-23T11:56:34;4.35;;;3.40;;
66169;SDS011;52971;44.024;20.456;2022-10-23T11:59:19;12.30;;;10.15;;
66169;SDS011;52971;44.024;20.456;2022-10-23T12:01:53;9.52;;;6.43;;
66169;SDS011;52971;44.024;20.456;2022-10-23T12:04:26;5.88;;;3.72;;
66169;SDS011;52971;44.024;20.456;2022-10-23T12:07:02;6.15;;;4.20;;
66169;SDS011;52971;44.024;20.456;2022-10-23T12:10:06;7.18;;;3.65;;
66169;SDS011;52971;44.024;20.456;2022-10-23T12:12:52;9.52;;;3.85;;
66169;SDS011;52971;44.024;20.456;2022-10-23T12:15:28;4.78;;;3.90;;
66169;SDS011;52971;44.024;20.456;2022-10-23T12:18:05;4.88;;;3.28;;
66169;SDS011;52971;44.024;20.456;2022-10-23T12:29:20;6.05;;;5.05;;
66169;SDS011;52971;44.024;20.456;2022-10-23T12:39:41;4.95;;;3.63;;
66169;SDS011;52971;44.024;20.456;2022-10-23T12:42:14;6.50;;;4.15;;
66169;SDS011;52971;44.024;20.456;2022-10-23T12:44:44;6.32;;;5.07;;
66169;SDS011;52971;44.024;20.456;2022-10-23T12:47:10;6.00;;;3.70;;
66169;SDS011;52971;44.024;20.456;2022-10-23T12:49:46;6.75;;;4.15;;
66169;SDS011;52971;44.024;20.456;2022-10-23T12:52:17;6.50;;;4.30;;
66169;SDS011;52971;44.024;20.456;2022-10-23T12:54:45;5.85;;;3.25;;
66169;SDS011;52971;44.024;20.456;2022-10-23T12:59:49;7.53;;;4.18;;
66169;SDS011;52971;44.024;20.456;2022-10-23T13:04:45;14.73;;;9.60;;
66169;SDS011;52971;44.024;20.456;2022-10-23T13:07:12;6.28;;;3.70;;
66169;SDS011;52971;44.024;20.456;2022-10-23T13:09:39;8.23;;;4.28;;
66169;SDS011;52971;44.024;20.456;2022-10-23T13:12:07;6.03;;;3.50;;
66169;SDS011;52971;44.024;20.456;2022-10-23T13:14:52;7.05;;;3.15;;
66169;SDS011;52971;44.024;20.456;2022-10-23T13:17:34;4.28;;;2.45;;
66169;SDS011;52971;44.024;20.456;2022-10-23T13:20:35;5.22;;;3.03;;
66169;SDS011;52971;44.024;20.456;2022-10-23T13:25:32;3.60;;;2.83;;
66169;SDS011;52971;44.024;20.456;2022-10-23T13:28:11;5.85;;;3.08;;
66169;SDS011;52971;44.024;20.456;2022-10-23T13:30:57;24.15;;;20.15;;
66169;SDS011;52971;44.024;20.456;2022-10-23T13:33:24;10.88;;;6.40;;
66169;SDS011;52971;44.024;20.456;2022-10-23T13:35:54;10.52;;;5.78;;
66169;SDS011;52971;44.024;20.456;2022-10-23T13:38:27;7.90;;;4.30;;
66169;SDS011;52971;44.024;20.456;2022-10-23T13:41:04;13.18;;;8.65;;
66169;SDS011;52971;44.024;20.456;2022-10-23T13:43:34;6.30;;;4.40;;
66169;SDS011;52971;44.024;20.456;2022-10-23T13:45:59;6.25;;;4.10;;
66169;SDS011;52971;44.024;20.456;2022-10-23T13:48:25;7.57;;;5.00;;
66169;SDS011;52971;44.024;20.456;2022-10-23T13:50:51;5.43;;;3.85;;
66169;SDS011;52971;44.024;20.456;2022-10-23T13:53:17;5.82;;;4.35;;
66169;SDS011;52971;44.024;20.456;2022-10-23T13:55:44;7.25;;;3.20;;
66169;SDS011;52971;44.024;20.456;2022-10-23T13:58:11;6.75;;;3.40;;
66169;SDS011;52971;44.024;20.456;2022-10-23T14:00:37;9.23;;;3.58;;
66169;SDS011;52971;44.024;20.456;2022-10-23T14:03:03;4.72;;;3.70;;
66169;SDS011;52971;44.024;20.456;2022-10-23T14:05:29;6.82;;;3.63;;
66169;SDS011;52971;44.024;20.456;2022-10-23T14:07:55;6.10;;;3.70;;
66169;SDS011;52971;44.024;20.456;2022-10-23T14:10:20;7.07;;;3.42;;
66169;SDS011;52971;44.024;20.456;2022-10-23T14:12:47;8.65;;;3.25;;
66169;SDS011;52971;44.024;20.456;2022-10-23T14:15:17;5.60;;;2.92;;
66169;SDS011;52971;44.024;20.456;2022-10-23T14:17:43;5.72;;;3.20;;
66169;SDS011;52971;44.024;20.456;2022-10-23T14:20:09;6.50;;;3.92;;
66169;SDS011;52971;44.024;20.456;2022-10-23T14:22:34;7.93;;;2.83;;
66169;SDS011;52971;44.024;20.456;2022-10-23T14:25:00;8.23;;;3.22;;
66169;SDS011;52971;44.024;20.456;2022-10-23T14:27:25;12.88;;;5.45;;
66169;SDS011;52971;44.024;20.456;2022-10-23T14:29:51;10.30;;;5.80;;
66169;SDS011;52971;44.024;20.456;2022-10-23T14:32:17;16.40;;;9.35;;
66169;SDS011;52971;44.024;20.456;2022-10-23T14:34:42;13.10;;;9.57;;
66169;SDS011;52971;44.024;20.456;2022-10-23T14:37:09;5.95;;;3.20;;
66169;SDS011;52971;44.024;20.456;2022-10-23T14:39:35;11.70;;;7.43;;
66169;SDS011;52971;44.024;20.456;2022-10-23T14:42:01;12.73;;;6.40;;
66169;SDS011;52971;44.024;20.456;2022-10-23T14:44:26;14.93;;;7.45;;
66169;SDS011;52971;44.024;20.456;2022-10-23T14:46:52;12.55;;;6.82;;
66169;SDS011;52971;44.024;20.456;2022-10-23T14:49:17;18.83;;;6.10;;
66169;SDS011;52971;44.024;20.456;2022-10-23T14:51:42;9.82;;;5.45;;
66169;SDS011;52971;44.024;20.456;2022-10-23T14:54:08;18.45;;;5.93;;
66169;SDS011;52971;44.024;20.456;2022-10-23T14:56:37;9.45;;;4.95;;
66169;SDS011;52971;44.024;20.456;2022-10-23T14:59:04;11.35;;;6.70;;
66169;SDS011;52971;44.024;20.456;2022-10-23T15:01:37;8.60;;;6.45;;
66169;SDS011;52971;44.024;20.456;2022-10-23T15:06:31;17.60;;;11.45;;
66169;SDS011;52971;44.024;20.456;2022-10-23T15:08:57;20.20;;;12.90;;
66169;SDS011;52971;44.024;20.456;2022-10-23T15:11:24;14.68;;;10.43;;
66169;SDS011;52971;44.024;20.456;2022-10-23T15:13:50;17.98;;;11.15;;
66169;SDS011;52971;44.024;20.456;2022-10-23T15:16:16;15.55;;;10.60;;
66169;SDS011;52971;44.024;20.456;2022-10-23T15:18:42;19.35;;;10.75;;
66169;SDS011;52971;44.024;20.456;2022-10-23T15:21:08;25.08;;;13.82;;
66169;SDS011;52971;44.024;20.456;2022-10-23T15:23:35;19.30;;;12.35;;
66169;SDS011;52971;44.024;20.456;2022-10-23T15:26:03;16.98;;;12.20;;
66169;SDS011;52971;44.024;20.456;2022-10-23T15:28:31;15.30;;;10.85;;
66169;SDS011;52971;44.024;20.456;2022-10-23T15:30:57;29.90;;;15.13;;
66169;SDS011;52971;44.024;20.456;2022-10-23T15:33:23;21.70;;;13.32;;
66169;SDS011;52971;44.024;20.456;2022-10-23T15:35:49;19.88;;;13.13;;
66169;SDS011;52971;44.024;20.456;2022-10-23T15:38:16;20.88;;;13.13;;
66169;SDS011;52971;44.024;20.456;2022-10-23T15:40:42;19.02;;;12.18;;
66169;SDS011;52971;44.024;20.456;2022-10-23T15:43:10;17.58;;;11.82;;
66169;SDS011;52971;44.024;20.456;2022-10-23T15:45:36;23.95;;;16.42;;
66169;SDS011;52971;44.024;20.456;2022-10-23T15:48:02;46.88;;;36.15;;
66169;SDS011;52971;44.024;20.456;2022-10-23T15:50:28;81.32;;;62.90;;
66169;SDS011;52971;44.024;20.456;2022-10-23T15:52:53;43.45;;;32.80;;
66169;SDS011;52971;44.024;20.456;2022-10-23T15:55:19;56.60;;;42.22;;
66169;SDS011;52971;44.024;20.456;2022-10-23T15:57:45;50.17;;;35.85;;
66169;SDS011;52971;44.024;20.456;2022-10-23T16:00:11;49.42;;;31.88;;
66169;SDS011;52971;44.024;20.456;2022-10-23T16:02:37;47.38;;;28.63;;
66169;SDS011;52971;44.024;20.456;2022-10-23T16:05:03;35.75;;;26.90;;
66169;SDS011;52971;44.024;20.456;2022-10-23T16:07:30;37.50;;;28.08;;
66169;SDS011;52971;44.024;20.456;2022-10-23T16:09:55;40.53;;;27.55;;
66169;SDS011;52971;44.024;20.456;2022-10-23T16:12:21;60.78;;;39.28;;
66169;SDS011;52971;44.024;20.456;2022-10-23T16:14:47;68.68;;;50.95;;
66169;SDS011;52971;44.024;20.456;2022-10-23T16:17:13;72.25;;;50.33;;
66169;SDS011;52971;44.024;20.456;2022-10-23T16:19:38;90.10;;;61.78;;
66169;SDS011;52971;44.024;20.456;2022-10-23T16:22:04;84.53;;;61.05;;
66169;SDS011;52971;44.024;20.456;2022-10-23T16:24:31;83.40;;;57.03;;
66169;SDS011;52971;44.024;20.456;2022-10-23T16:26:57;74.60;;;53.42;;
66169;SDS011;52971;44.024;20.456;2022-10-23T16:29:23;83.88;;;57.08;;
66169;SDS011;52971;44.024;20.456;2022-10-23T16:31:51;78.13;;;52.20;;
66169;SDS011;52971;44.024;20.456;2022-10-23T16:34:17;85.38;;;57.70;;
66169;SDS011;52971;44.024;20.456;2022-10-23T16:36:44;104.63;;;63.35;;